Crockett, Virginia
Current Conditions -  °F | °C
As of 8:55 AM on Thursday 23 Oct 2014 (Local Time) from KMKJ Reporting Station
Broken Clouds Broken Clouds  
Wind Chill: 39°   Ceiling: 1800
Heat Index: 44°   Visibility: 10mi
Dew Point: 37°   Wind: 12mph
Humidity: 76%   Direction: 300°WNW
Pressure: 30.18"   Gusts: NA
Location:  36.89°N, 81.19°W
Report Text: KMKJ 231255Z AUTO 30010KT 10SM BKN018 BKN025 07/03 A3018 RMK AO2 T00690029
Loading
Personal Weather Stations






























Interactive Weather Map
Tropical Storm Tracking
New forecast layout! Learn more

10-Day Weather Forecast

Advertisements
Track Severe Weather on mobile